sensor_id;sensor_type;location;lat;lon;timestamp;P1;durP1;ratioP1;P2;durP2;ratioP2
12715;SDS011;6422;49.938;9.124;2023-08-01T00:00:55;2.97;;;2.10;;
12715;SDS011;6422;49.938;9.124;2023-08-01T00:03:21;2.93;;;1.50;;
12715;SDS011;6422;49.938;9.124;2023-08-01T00:05:46;3.45;;;1.20;;
12715;SDS011;6422;49.938;9.124;2023-08-01T00:08:11;4.78;;;2.08;;
12715;SDS011;6422;49.938;9.124;2023-08-01T00:10:40;4.80;;;1.90;;
12715;SDS011;6422;49.938;9.124;2023-08-01T00:13:05;2.53;;;1.10;;
12715;SDS011;6422;49.938;9.124;2023-08-01T00:15:31;3.50;;;1.57;;
12715;SDS011;6422;49.938;9.124;2023-08-01T00:17:56;4.30;;;2.20;;
12715;SDS011;6422;49.938;9.124;2023-08-01T00:20:21;6.50;;;2.13;;
12715;SDS011;6422;49.938;9.124;2023-08-01T00:22:46;4.20;;;2.00;;
12715;SDS011;6422;49.938;9.124;2023-08-01T00:25:11;3.50;;;1.20;;
12715;SDS011;6422;49.938;9.124;2023-08-01T00:27:36;2.47;;;1.60;;
12715;SDS011;6422;49.938;9.124;2023-08-01T00:30:02;2.23;;;1.73;;
12715;SDS011;6422;49.938;9.124;2023-08-01T00:32:27;5.33;;;2.27;;
12715;SDS011;6422;49.938;9.124;2023-08-01T00:34:52;4.80;;;1.33;;
12715;SDS011;6422;49.938;9.124;2023-08-01T00:37:17;5.93;;;2.00;;
12715;SDS011;6422;49.938;9.124;2023-08-01T00:39:42;3.47;;;2.13;;
12715;SDS011;6422;49.938;9.124;2023-08-01T00:42:08;6.93;;;1.58;;
12715;SDS011;6422;49.938;9.124;2023-08-01T00:44:33;3.83;;;1.80;;
12715;SDS011;6422;49.938;9.124;2023-08-01T00:46:58;2.53;;;1.55;;
12715;SDS011;6422;49.938;9.124;2023-08-01T00:49:23;5.83;;;2.10;;
12715;SDS011;6422;49.938;9.124;2023-08-01T00:51:48;5.83;;;2.53;;
12715;SDS011;6422;49.938;9.124;2023-08-01T00:54:14;1.67;;;1.20;;
12715;SDS011;6422;49.938;9.124;2023-08-01T00:56:39;3.00;;;1.70;;
12715;SDS011;6422;49.938;9.124;2023-08-01T00:59:05;3.30;;;1.70;;
12715;SDS011;6422;49.938;9.124;2023-08-01T01:01:30;4.40;;;2.00;;
12715;SDS011;6422;49.938;9.124;2023-08-01T01:03:55;3.53;;;1.10;;
12715;SDS011;6422;49.938;9.124;2023-08-01T01:06:24;3.23;;;1.43;;
12715;SDS011;6422;49.938;9.124;2023-08-01T01:08:53;3.97;;;2.17;;
12715;SDS011;6422;49.938;9.124;2023-08-01T01:11:20;2.73;;;1.40;;
12715;SDS011;6422;49.938;9.124;2023-08-01T01:13:45;9.18;;;2.75;;
12715;SDS011;6422;49.938;9.124;2023-08-01T01:16:10;1.77;;;1.23;;
12715;SDS011;6422;49.938;9.124;2023-08-01T01:18:35;8.90;;;1.90;;
12715;SDS011;6422;49.938;9.124;2023-08-01T01:21:00;4.43;;;2.15;;
12715;SDS011;6422;49.938;9.124;2023-08-01T01:23:26;1.97;;;1.37;;
12715;SDS011;6422;49.938;9.124;2023-08-01T01:25:52;2.77;;;1.60;;
12715;SDS011;6422;49.938;9.124;2023-08-01T01:28:18;3.10;;;1.70;;
12715;SDS011;6422;49.938;9.124;2023-08-01T01:30:44;2.47;;;1.67;;
12715;SDS011;6422;49.938;9.124;2023-08-01T01:33:10;1.50;;;1.13;;
12715;SDS011;6422;49.938;9.124;2023-08-01T01:35:35;3.57;;;1.30;;
12715;SDS011;6422;49.938;9.124;2023-08-01T01:38:01;4.33;;;2.23;;
12715;SDS011;6422;49.938;9.124;2023-08-01T01:40:29;2.47;;;1.60;;
12715;SDS011;6422;49.938;9.124;2023-08-01T01:42:54;3.83;;;1.50;;
12715;SDS011;6422;49.938;9.124;2023-08-01T01:45:19;5.70;;;2.00;;
12715;SDS011;6422;49.938;9.124;2023-08-01T01:47:44;6.33;;;2.27;;
12715;SDS011;6422;49.938;9.124;2023-08-01T01:50:09;13.93;;;2.00;;
12715;SDS011;6422;49.938;9.124;2023-08-01T01:52:34;3.20;;;1.43;;
12715;SDS011;6422;49.938;9.124;2023-08-01T01:55:00;3.10;;;1.50;;
12715;SDS011;6422;49.938;9.124;2023-08-01T01:57:26;3.63;;;1.63;;
12715;SDS011;6422;49.938;9.124;2023-08-01T01:59:51;2.07;;;1.37;;
12715;SDS011;6422;49.938;9.124;2023-08-01T02:02:16;3.10;;;2.00;;
12715;SDS011;6422;49.938;9.124;2023-08-01T02:04:41;5.95;;;3.00;;
12715;SDS011;6422;49.938;9.124;2023-08-01T02:07:06;5.10;;;2.33;;
12715;SDS011;6422;49.938;9.124;2023-08-01T02:09:31;4.80;;;1.40;;
12715;SDS011;6422;49.938;9.124;2023-08-01T02:11:57;2.40;;;1.80;;
12715;SDS011;6422;49.938;9.124;2023-08-01T02:14:22;2.50;;;1.47;;
12715;SDS011;6422;49.938;9.124;2023-08-01T02:16:47;3.50;;;1.90;;
12715;SDS011;6422;49.938;9.124;2023-08-01T02:19:12;6.50;;;2.20;;
12715;SDS011;6422;49.938;9.124;2023-08-01T02:21:37;2.17;;;1.20;;
12715;SDS011;6422;49.938;9.124;2023-08-01T02:24:02;4.28;;;1.73;;
12715;SDS011;6422;49.938;9.124;2023-08-01T02:26:28;5.13;;;2.07;;
12715;SDS011;6422;49.938;9.124;2023-08-01T02:28:54;4.27;;;2.40;;
12715;SDS011;6422;49.938;9.124;2023-08-01T02:31:19;5.20;;;1.60;;
12715;SDS011;6422;49.938;9.124;2023-08-01T02:33:44;4.05;;;2.25;;
12715;SDS011;6422;49.938;9.124;2023-08-01T02:36:09;4.70;;;2.20;;
12715;SDS011;6422;49.938;9.124;2023-08-01T02:38:34;3.45;;;1.23;;
12715;SDS011;6422;49.938;9.124;2023-08-01T02:40:59;3.63;;;1.57;;
12715;SDS011;6422;49.938;9.124;2023-08-01T02:43:25;3.97;;;1.67;;
12715;SDS011;6422;49.938;9.124;2023-08-01T02:45:50;4.10;;;1.80;;
12715;SDS011;6422;49.938;9.124;2023-08-01T02:48:15;2.25;;;1.77;;
12715;SDS011;6422;49.938;9.124;2023-08-01T02:50:40;7.00;;;1.40;;
12715;SDS011;6422;49.938;9.124;2023-08-01T02:53:06;2.23;;;1.50;;
12715;SDS011;6422;49.938;9.124;2023-08-01T02:55:31;2.60;;;1.23;;
12715;SDS011;6422;49.938;9.124;2023-08-01T02:57:56;2.72;;;1.55;;
12715;SDS011;6422;49.938;9.124;2023-08-01T03:00:21;2.45;;;1.48;;
12715;SDS011;6422;49.938;9.124;2023-08-01T03:02:46;2.80;;;1.70;;
12715;SDS011;6422;49.938;9.124;2023-08-01T03:05:11;5.25;;;1.55;;
12715;SDS011;6422;49.938;9.124;2023-08-01T03:07:38;2.30;;;1.57;;
12715;SDS011;6422;49.938;9.124;2023-08-01T03:10:03;1.80;;;1.17;;
12715;SDS011;6422;49.938;9.124;2023-08-01T03:12:28;2.00;;;1.13;;
12715;SDS011;6422;49.938;9.124;2023-08-01T03:14:53;2.50;;;1.37;;
12715;SDS011;6422;49.938;9.124;2023-08-01T03:17:18;4.00;;;1.90;;
12715;SDS011;6422;49.938;9.124;2023-08-01T03:19:44;1.92;;;1.13;;
12715;SDS011;6422;49.938;9.124;2023-08-01T03:22:09;1.50;;;1.13;;
12715;SDS011;6422;49.938;9.124;2023-08-01T03:24:34;1.40;;;1.00;;
12715;SDS011;6422;49.938;9.124;2023-08-01T03:26:59;1.47;;;1.00;;
12715;SDS011;6422;49.938;9.124;2023-08-01T03:29:25;1.98;;;1.38;;
12715;SDS011;6422;49.938;9.124;2023-08-01T03:31:50;3.22;;;1.35;;
12715;SDS011;6422;49.938;9.124;2023-08-01T03:34:15;6.70;;;1.60;;
12715;SDS011;6422;49.938;9.124;2023-08-01T03:36:40;1.20;;;0.80;;
12715;SDS011;6422;49.938;9.124;2023-08-01T03:39:05;1.33;;;0.82;;
12715;SDS011;6422;49.938;9.124;2023-08-01T03:41:31;1.77;;;1.03;;
12715;SDS011;6422;49.938;9.124;2023-08-01T03:43:56;1.30;;;0.80;;
12715;SDS011;6422;49.938;9.124;2023-08-01T03:46:21;1.27;;;0.90;;
12715;SDS011;6422;49.938;9.124;2023-08-01T03:48:47;1.83;;;1.17;;
12715;SDS011;6422;49.938;9.124;2023-08-01T03:51:12;4.57;;;1.27;;
12715;SDS011;6422;49.938;9.124;2023-08-01T03:53:40;1.20;;;0.87;;
12715;SDS011;6422;49.938;9.124;2023-08-01T03:56:05;2.00;;;1.10;;
12715;SDS011;6422;49.938;9.124;2023-08-01T03:58:30;1.88;;;1.00;;
12715;SDS011;6422;49.938;9.124;2023-08-01T04:00:55;2.17;;;1.10;;
12715;SDS011;6422;49.938;9.124;2023-08-01T04:03:20;1.33;;;0.90;;
12715;SDS011;6422;49.938;9.124;2023-08-01T04:05:46;4.30;;;1.23;;
12715;SDS011;6422;49.938;9.124;2023-08-01T04:08:11;10.40;;;1.00;;
12715;SDS011;6422;49.938;9.124;2023-08-01T04:10:36;2.55;;;1.33;;
12715;SDS011;6422;49.938;9.124;2023-08-01T04:13:01;2.22;;;0.93;;
12715;SDS011;6422;49.938;9.124;2023-08-01T04:15:27;3.10;;;1.17;;
12715;SDS011;6422;49.938;9.124;2023-08-01T04:17:52;2.80;;;1.37;;
12715;SDS011;6422;49.938;9.124;2023-08-01T04:20:17;2.00;;;0.82;;
12715;SDS011;6422;49.938;9.124;2023-08-01T04:22:42;1.63;;;0.93;;
12715;SDS011;6422;49.938;9.124;2023-08-01T04:25:07;5.50;;;1.23;;
12715;SDS011;6422;49.938;9.124;2023-08-01T04:27:33;1.27;;;0.80;;
12715;SDS011;6422;49.938;9.124;2023-08-01T04:29:58;2.40;;;1.40;;
12715;SDS011;6422;49.938;9.124;2023-08-01T04:32:23;1.70;;;1.03;;
12715;SDS011;6422;49.938;9.124;2023-08-01T04:34:48;4.00;;;1.23;;
12715;SDS011;6422;49.938;9.124;2023-08-01T04:37:13;1.33;;;0.90;;
12715;SDS011;6422;49.938;9.124;2023-08-01T04:39:39;4.10;;;1.80;;
12715;SDS011;6422;49.938;9.124;2023-08-01T04:42:04;3.90;;;1.33;;
12715;SDS011;6422;49.938;9.124;2023-08-01T04:44:29;2.80;;;0.90;;
12715;SDS011;6422;49.938;9.124;2023-08-01T04:46:55;1.83;;;0.97;;
12715;SDS011;6422;49.938;9.124;2023-08-01T04:49:20;2.60;;;1.30;;
12715;SDS011;6422;49.938;9.124;2023-08-01T04:51:45;4.10;;;1.02;;
12715;SDS011;6422;49.938;9.124;2023-08-01T04:54:10;2.33;;;1.30;;
12715;SDS011;6422;49.938;9.124;2023-08-01T04:56:35;2.75;;;1.52;;
12715;SDS011;6422;49.938;9.124;2023-08-01T04:59:01;1.45;;;0.98;;
12715;SDS011;6422;49.938;9.124;2023-08-01T05:01:27;1.57;;;0.93;;
12715;SDS011;6422;49.938;9.124;2023-08-01T05:03:52;2.08;;;1.60;;
12715;SDS011;6422;49.938;9.124;2023-08-01T05:06:17;6.50;;;1.30;;
12715;SDS011;6422;49.938;9.124;2023-08-01T05:08:42;2.40;;;1.57;;
12715;SDS011;6422;49.938;9.124;2023-08-01T05:11:07;2.85;;;1.10;;
12715;SDS011;6422;49.938;9.124;2023-08-01T05:13:32;3.93;;;0.97;;
12715;SDS011;6422;49.938;9.124;2023-08-01T05:15:58;1.90;;;1.10;;
12715;SDS011;6422;49.938;9.124;2023-08-01T05:18:23;3.53;;;1.20;;
12715;SDS011;6422;49.938;9.124;2023-08-01T05:20:48;1.73;;;0.97;;
12715;SDS011;6422;49.938;9.124;2023-08-01T05:23:13;1.53;;;1.07;;
12715;SDS011;6422;49.938;9.124;2023-08-01T05:25:38;2.90;;;1.00;;
12715;SDS011;6422;49.938;9.124;2023-08-01T05:28:03;3.23;;;1.53;;
12715;SDS011;6422;49.938;9.124;2023-08-01T05:30:29;1.60;;;0.98;;
12715;SDS011;6422;49.938;9.124;2023-08-01T05:32:54;1.57;;;1.10;;
12715;SDS011;6422;49.938;9.124;2023-08-01T05:35:19;1.30;;;0.90;;
12715;SDS011;6422;49.938;9.124;2023-08-01T05:37:44;1.20;;;0.80;;
12715;SDS011;6422;49.938;9.124;2023-08-01T05:40:09;1.80;;;1.20;;
12715;SDS011;6422;49.938;9.124;2023-08-01T05:42:35;4.47;;;1.63;;
12715;SDS011;6422;49.938;9.124;2023-08-01T05:45:00;2.90;;;1.57;;
12715;SDS011;6422;49.938;9.124;2023-08-01T05:47:25;1.60;;;0.80;;
12715;SDS011;6422;49.938;9.124;2023-08-01T05:49:50;1.85;;;1.38;;
12715;SDS011;6422;49.938;9.124;2023-08-01T05:52:15;2.07;;;1.23;;
12715;SDS011;6422;49.938;9.124;2023-08-01T05:54:40;3.87;;;1.93;;
12715;SDS011;6422;49.938;9.124;2023-08-01T05:57:06;1.65;;;0.95;;
12715;SDS011;6422;49.938;9.124;2023-08-01T05:59:31;3.53;;;1.27;;
12715;SDS011;6422;49.938;9.124;2023-08-01T06:01:56;2.80;;;1.47;;
12715;SDS011;6422;49.938;9.124;2023-08-01T06:04:21;2.80;;;1.40;;
12715;SDS011;6422;49.938;9.124;2023-08-01T06:06:46;1.83;;;1.33;;
12715;SDS011;6422;49.938;9.124;2023-08-01T06:09:11;2.58;;;1.40;;
12715;SDS011;6422;49.938;9.124;2023-08-01T06:11:37;1.93;;;1.00;;
12715;SDS011;6422;49.938;9.124;2023-08-01T06:14:02;1.57;;;0.80;;
12715;SDS011;6422;49.938;9.124;2023-08-01T06:16:27;1.20;;;0.70;;
12715;SDS011;6422;49.938;9.124;2023-08-01T06:18:52;2.20;;;1.20;;
12715;SDS011;6422;49.938;9.124;2023-08-01T06:21:18;1.50;;;0.80;;
12715;SDS011;6422;49.938;9.124;2023-08-01T06:23:43;1.30;;;0.77;;
12715;SDS011;6422;49.938;9.124;2023-08-01T06:26:08;2.17;;;0.93;;
12715;SDS011;6422;49.938;9.124;2023-08-01T06:28:34;1.83;;;1.10;;
12715;SDS011;6422;49.938;9.124;2023-08-01T06:30:59;1.40;;;0.80;;
12715;SDS011;6422;49.938;9.124;2023-08-01T06:33:24;2.30;;;1.37;;
12715;SDS011;6422;49.938;9.124;2023-08-01T06:35:49;1.77;;;0.88;;
12715;SDS011;6422;49.938;9.124;2023-08-01T06:38:15;1.43;;;0.80;;
12715;SDS011;6422;49.938;9.124;2023-08-01T06:40:40;9.98;;;1.13;;
12715;SDS011;6422;49.938;9.124;2023-08-01T06:43:05;1.40;;;0.80;;
12715;SDS011;6422;49.938;9.124;2023-08-01T06:45:30;4.30;;;1.20;;
12715;SDS011;6422;49.938;9.124;2023-08-01T06:47:55;1.47;;;1.00;;
12715;SDS011;6422;49.938;9.124;2023-08-01T06:50:21;1.53;;;1.00;;
12715;SDS011;6422;49.938;9.124;2023-08-01T06:52:46;1.80;;;0.83;;
12715;SDS011;6422;49.938;9.124;2023-08-01T06:55:11;1.00;;;0.70;;
12715;SDS011;6422;49.938;9.124;2023-08-01T06:57:36;1.43;;;0.80;;
12715;SDS011;6422;49.938;9.124;2023-08-01T07:00:02;7.03;;;1.57;;
12715;SDS011;6422;49.938;9.124;2023-08-01T07:02:27;1.77;;;1.03;;
12715;SDS011;6422;49.938;9.124;2023-08-01T07:04:53;2.35;;;0.95;;
12715;SDS011;6422;49.938;9.124;2023-08-01T07:07:18;1.90;;;0.83;;
12715;SDS011;6422;49.938;9.124;2023-08-01T07:09:43;2.20;;;1.00;;
12715;SDS011;6422;49.938;9.124;2023-08-01T07:12:08;1.30;;;1.10;;
12715;SDS011;6422;49.938;9.124;2023-08-01T07:14:34;1.42;;;0.80;;
12715;SDS011;6422;49.938;9.124;2023-08-01T07:16:59;2.33;;;0.90;;
12715;SDS011;6422;49.938;9.124;2023-08-01T07:19:24;1.50;;;1.10;;
12715;SDS011;6422;49.938;9.124;2023-08-01T07:21:49;1.97;;;1.00;;
12715;SDS011;6422;49.938;9.124;2023-08-01T07:24:14;1.77;;;0.90;;
12715;SDS011;6422;49.938;9.124;2023-08-01T07:26:40;2.40;;;1.10;;
12715;SDS011;6422;49.938;9.124;2023-08-01T07:29:05;1.27;;;0.80;;
12715;SDS011;6422;49.938;9.124;2023-08-01T07:31:33;1.40;;;0.90;;
12715;SDS011;6422;49.938;9.124;2023-08-01T07:33:58;1.63;;;0.90;;
12715;SDS011;6422;49.938;9.124;2023-08-01T07:36:23;2.87;;;1.10;;
12715;SDS011;6422;49.938;9.124;2023-08-01T07:38:49;1.77;;;1.03;;
12715;SDS011;6422;49.938;9.124;2023-08-01T07:41:14;1.70;;;0.80;;
12715;SDS011;6422;49.938;9.124;2023-08-01T07:43:39;1.17;;;0.80;;
12715;SDS011;6422;49.938;9.124;2023-08-01T07:46:04;3.30;;;1.17;;
12715;SDS011;6422;49.938;9.124;2023-08-01T07:48:29;3.73;;;1.63;;
12715;SDS011;6422;49.938;9.124;2023-08-01T07:50:54;2.00;;;1.00;;
12715;SDS011;6422;49.938;9.124;2023-08-01T07:53:20;1.90;;;0.87;;
12715;SDS011;6422;49.938;9.124;2023-08-01T07:55:45;1.93;;;0.90;;
12715;SDS011;6422;49.938;9.124;2023-08-01T07:58:10;1.00;;;0.60;;
12715;SDS011;6422;49.938;9.124;2023-08-01T08:00:35;1.10;;;0.70;;
12715;SDS011;6422;49.938;9.124;2023-08-01T08:03:01;1.30;;;0.80;;
12715;SDS011;6422;49.938;9.124;2023-08-01T08:05:26;1.00;;;0.53;;
12715;SDS011;6422;49.938;9.124;2023-08-01T08:07:51;1.10;;;0.70;;
12715;SDS011;6422;49.938;9.124;2023-08-01T08:10:16;1.10;;;0.70;;
12715;SDS011;6422;49.938;9.124;2023-08-01T08:12:41;1.70;;;0.70;;
12715;SDS011;6422;49.938;9.124;2023-08-01T08:15:06;1.20;;;0.68;;
12715;SDS011;6422;49.938;9.124;2023-08-01T08:17:32;1.23;;;0.70;;
12715;SDS011;6422;49.938;9.124;2023-08-01T08:19:57;1.52;;;0.60;;
12715;SDS011;6422;49.938;9.124;2023-08-01T08:22:22;1.33;;;0.70;;
12715;SDS011;6422;49.938;9.124;2023-08-01T08:24:48;1.07;;;0.70;;
12715;SDS011;6422;49.938;9.124;2023-08-01T08:27:13;1.10;;;0.60;;
12715;SDS011;6422;49.938;9.124;2023-08-01T08:29:38;1.23;;;0.70;;
12715;SDS011;6422;49.938;9.124;2023-08-01T08:32:03;1.00;;;0.60;;
12715;SDS011;6422;49.938;9.124;2023-08-01T08:34:29;1.47;;;0.77;;
12715;SDS011;6422;49.938;9.124;2023-08-01T08:36:54;1.20;;;0.60;;
12715;SDS011;6422;49.938;9.124;2023-08-01T08:39:19;1.10;;;0.70;;
12715;SDS011;6422;49.938;9.124;2023-08-01T08:41:47;1.00;;;0.60;;
12715;SDS011;6422;49.938;9.124;2023-08-01T08:44:16;1.43;;;0.67;;
12715;SDS011;6422;49.938;9.124;2023-08-01T08:46:42;2.90;;;1.03;;
12715;SDS011;6422;49.938;9.124;2023-08-01T08:49:08;2.07;;;0.80;;
12715;SDS011;6422;49.938;9.124;2023-08-01T08:51:33;1.40;;;0.70;;
12715;SDS011;6422;49.938;9.124;2023-08-01T08:53:59;1.70;;;0.70;;
12715;SDS011;6422;49.938;9.124;2023-08-01T08:56:25;1.93;;;1.10;;
12715;SDS011;6422;49.938;9.124;2023-08-01T08:58:51;4.63;;;1.10;;
12715;SDS011;6422;49.938;9.124;2023-08-01T09:01:17;1.10;;;0.60;;
12715;SDS011;6422;49.938;9.124;2023-08-01T09:03:42;10.93;;;0.87;;
12715;SDS011;6422;49.938;9.124;2023-08-01T09:06:13;1.93;;;0.73;;
12715;SDS011;6422;49.938;9.124;2023-08-01T09:08:39;2.33;;;0.73;;
12715;SDS011;6422;49.938;9.124;2023-08-01T09:11:05;1.10;;;0.60;;
12715;SDS011;6422;49.938;9.124;2023-08-01T09:13:30;1.30;;;0.70;;
12715;SDS011;6422;49.938;9.124;2023-08-01T09:15:56;2.70;;;0.77;;
12715;SDS011;6422;49.938;9.124;2023-08-01T09:18:21;1.40;;;0.60;;
12715;SDS011;6422;49.938;9.124;2023-08-01T09:20:47;1.97;;;0.80;;
12715;SDS011;6422;49.938;9.124;2023-08-01T09:23:13;1.60;;;0.80;;
12715;SDS011;6422;49.938;9.124;2023-08-01T09:25:38;1.53;;;0.73;;
12715;SDS011;6422;49.938;9.124;2023-08-01T09:28:14;1.30;;;0.70;;
12715;SDS011;6422;49.938;9.124;2023-08-01T09:30:50;1.53;;;0.73;;
12715;SDS011;6422;49.938;9.124;2023-08-01T09:33:15;1.40;;;0.80;;
12715;SDS011;6422;49.938;9.124;2023-08-01T09:35:40;1.57;;;0.77;;
12715;SDS011;6422;49.938;9.124;2023-08-01T09:38:06;1.10;;;0.60;;
12715;SDS011;6422;49.938;9.124;2023-08-01T09:40:38;1.17;;;0.60;;
12715;SDS011;6422;49.938;9.124;2023-08-01T09:43:03;1.17;;;0.60;;
12715;SDS011;6422;49.938;9.124;2023-08-01T09:45:28;1.80;;;0.70;;
12715;SDS011;6422;49.938;9.124;2023-08-01T09:47:53;1.37;;;0.73;;
12715;SDS011;6422;49.938;9.124;2023-08-01T09:50:19;3.63;;;0.93;;
12715;SDS011;6422;49.938;9.124;2023-08-01T09:52:45;2.13;;;0.70;;
12715;SDS011;6422;49.938;9.124;2023-08-01T09:55:17;1.20;;;0.63;;
12715;SDS011;6422;49.938;9.124;2023-08-01T09:57:42;2.23;;;0.90;;
12715;SDS011;6422;49.938;9.124;2023-08-01T10:00:08;1.10;;;0.50;;
12715;SDS011;6422;49.938;9.124;2023-08-01T10:02:34;1.97;;;0.83;;
12715;SDS011;6422;49.938;9.124;2023-08-01T10:05:00;2.17;;;0.80;;
12715;SDS011;6422;49.938;9.124;2023-08-01T10:07:26;1.70;;;0.80;;
12715;SDS011;6422;49.938;9.124;2023-08-01T10:09:53;2.10;;;0.90;;
12715;SDS011;6422;49.938;9.124;2023-08-01T10:12:19;1.20;;;0.60;;
12715;SDS011;6422;49.938;9.124;2023-08-01T10:14:44;1.67;;;1.00;;
12715;SDS011;6422;49.938;9.124;2023-08-01T10:17:10;2.23;;;0.80;;
12715;SDS011;6422;49.938;9.124;2023-08-01T10:19:35;1.80;;;0.73;;
12715;SDS011;6422;49.938;9.124;2023-08-01T10:22:02;1.33;;;0.80;;
12715;SDS011;6422;49.938;9.124;2023-08-01T10:24:27;1.70;;;0.90;;
12715;SDS011;6422;49.938;9.124;2023-08-01T10:26:53;2.03;;;0.73;;
12715;SDS011;6422;49.938;9.124;2023-08-01T10:29:18;1.50;;;0.70;;
12715;SDS011;6422;49.938;9.124;2023-08-01T10:31:50;1.27;;;0.63;;
12715;SDS011;6422;49.938;9.124;2023-08-01T10:34:16;1.50;;;0.80;;
12715;SDS011;6422;49.938;9.124;2023-08-01T10:36:41;1.97;;;0.93;;
12715;SDS011;6422;49.938;9.124;2023-08-01T10:39:06;3.57;;;0.90;;
12715;SDS011;6422;49.938;9.124;2023-08-01T10:41:35;1.30;;;0.70;;
12715;SDS011;6422;49.938;9.124;2023-08-01T10:44:07;1.53;;;0.73;;
12715;SDS011;6422;49.938;9.124;2023-08-01T10:46:48;1.30;;;0.70;;
12715;SDS011;6422;49.938;9.124;2023-08-01T10:49:14;1.60;;;0.80;;
12715;SDS011;6422;49.938;9.124;2023-08-01T10:51:39;2.20;;;1.20;;
12715;SDS011;6422;49.938;9.124;2023-08-01T10:54:05;3.53;;;0.90;;
12715;SDS011;6422;49.938;9.124;2023-08-01T10:56:30;1.23;;;0.60;;
12715;SDS011;6422;49.938;9.124;2023-08-01T10:58:56;2.37;;;1.10;;
12715;SDS011;6422;49.938;9.124;2023-08-01T11:01:22;1.20;;;0.50;;
12715;SDS011;6422;49.938;9.124;2023-08-01T11:03:47;1.40;;;0.70;;
12715;SDS011;6422;49.938;9.124;2023-08-01T11:06:12;1.77;;;0.90;;
12715;SDS011;6422;49.938;9.124;2023-08-01T11:08:38;1.30;;;0.60;;
12715;SDS011;6422;49.938;9.124;2023-08-01T11:11:11;2.27;;;0.80;;
12715;SDS011;6422;49.938;9.124;2023-08-01T11:13:36;1.43;;;0.77;;
12715;SDS011;6422;49.938;9.124;2023-08-01T11:16:02;1.60;;;0.90;;
12715;SDS011;6422;49.938;9.124;2023-08-01T11:18:28;2.17;;;0.90;;
12715;SDS011;6422;49.938;9.124;2023-08-01T11:20:53;3.03;;;1.00;;
12715;SDS011;6422;49.938;9.124;2023-08-01T11:23:18;1.40;;;0.70;;
12715;SDS011;6422;49.938;9.124;2023-08-01T11:25:43;2.15;;;0.80;;
12715;SDS011;6422;49.938;9.124;2023-08-01T11:28:14;1.40;;;0.70;;
12715;SDS011;6422;49.938;9.124;2023-08-01T11:30:40;2.30;;;0.73;;
12715;SDS011;6422;49.938;9.124;2023-08-01T11:33:19;1.70;;;1.00;;
12715;SDS011;6422;49.938;9.124;2023-08-01T11:35:45;1.97;;;1.00;;
12715;SDS011;6422;49.938;9.124;2023-08-01T11:38:11;1.80;;;0.77;;
12715;SDS011;6422;49.938;9.124;2023-08-01T11:40:36;1.50;;;0.80;;
12715;SDS011;6422;49.938;9.124;2023-08-01T11:43:02;4.10;;;0.70;;
12715;SDS011;6422;49.938;9.124;2023-08-01T11:45:27;2.30;;;1.00;;
12715;SDS011;6422;49.938;9.124;2023-08-01T11:47:52;2.10;;;1.00;;
12715;SDS011;6422;49.938;9.124;2023-08-01T11:50:20;1.63;;;0.70;;
12715;SDS011;6422;49.938;9.124;2023-08-01T11:52:47;1.57;;;0.70;;
12715;SDS011;6422;49.938;9.124;2023-08-01T11:55:19;1.40;;;0.70;;
12715;SDS011;6422;49.938;9.124;2023-08-01T11:57:52;2.00;;;1.07;;
12715;SDS011;6422;49.938;9.124;2023-08-01T12:00:21;3.47;;;1.60;;
12715;SDS011;6422;49.938;9.124;2023-08-01T12:02:46;1.87;;;0.70;;
12715;SDS011;6422;49.938;9.124;2023-08-01T12:05:11;1.73;;;0.70;;
12715;SDS011;6422;49.938;9.124;2023-08-01T12:07:45;1.90;;;0.93;;
12715;SDS011;6422;49.938;9.124;2023-08-01T12:10:11;1.60;;;0.80;;
12715;SDS011;6422;49.938;9.124;2023-08-01T12:12:42;2.28;;;1.17;;
12715;SDS011;6422;49.938;9.124;2023-08-01T12:15:08;2.27;;;1.10;;
12715;SDS011;6422;49.938;9.124;2023-08-01T12:17:33;2.83;;;1.10;;
12715;SDS011;6422;49.938;9.124;2023-08-01T12:19:58;4.73;;;0.90;;
12715;SDS011;6422;49.938;9.124;2023-08-01T12:22:23;1.92;;;0.95;;
12715;SDS011;6422;49.938;9.124;2023-08-01T12:24:48;2.40;;;0.73;;
12715;SDS011;6422;49.938;9.124;2023-08-01T12:27:14;1.70;;;0.80;;
12715;SDS011;6422;49.938;9.124;2023-08-01T12:29:40;5.10;;;1.13;;
12715;SDS011;6422;49.938;9.124;2023-08-01T12:32:05;1.60;;;0.77;;
12715;SDS011;6422;49.938;9.124;2023-08-01T12:34:31;2.70;;;1.20;;
12715;SDS011;6422;49.938;9.124;2023-08-01T12:36:57;3.00;;;0.70;;
12715;SDS011;6422;49.938;9.124;2023-08-01T12:39:22;2.72;;;1.27;;
12715;SDS011;6422;49.938;9.124;2023-08-01T12:41:50;1.80;;;0.87;;
12715;SDS011;6422;49.938;9.124;2023-08-01T12:44:15;1.63;;;0.80;;
12715;SDS011;6422;49.938;9.124;2023-08-01T12:46:42;2.00;;;0.80;;
12715;SDS011;6422;49.938;9.124;2023-08-01T12:49:07;1.80;;;0.70;;
12715;SDS011;6422;49.938;9.124;2023-08-01T12:51:32;1.70;;;0.80;;
12715;SDS011;6422;49.938;9.124;2023-08-01T12:53:57;1.50;;;0.80;;
12715;SDS011;6422;49.938;9.124;2023-08-01T12:56:23;2.10;;;1.07;;
12715;SDS011;6422;49.938;9.124;2023-08-01T12:58:48;1.80;;;0.87;;
12715;SDS011;6422;49.938;9.124;2023-08-01T13:01:13;1.67;;;0.77;;
12715;SDS011;6422;49.938;9.124;2023-08-01T13:03:38;1.80;;;0.90;;
12715;SDS011;6422;49.938;9.124;2023-08-01T13:06:03;2.13;;;1.03;;
12715;SDS011;6422;49.938;9.124;2023-08-01T13:08:28;1.50;;;0.67;;
12715;SDS011;6422;49.938;9.124;2023-08-01T13:10:54;1.93;;;1.00;;
12715;SDS011;6422;49.938;9.124;2023-08-01T13:13:19;1.60;;;0.70;;
12715;SDS011;6422;49.938;9.124;2023-08-01T13:15:44;1.80;;;0.90;;
12715;SDS011;6422;49.938;9.124;2023-08-01T13:18:10;2.63;;;1.20;;
12715;SDS011;6422;49.938;9.124;2023-08-01T13:20:35;12.03;;;1.20;;
12715;SDS011;6422;49.938;9.124;2023-08-01T13:23:01;1.97;;;1.03;;
12715;SDS011;6422;49.938;9.124;2023-08-01T13:25:27;4.13;;;0.80;;
12715;SDS011;6422;49.938;9.124;2023-08-01T13:27:52;2.80;;;0.97;;
12715;SDS011;6422;49.938;9.124;2023-08-01T13:30:17;9.63;;;0.90;;
12715;SDS011;6422;49.938;9.124;2023-08-01T13:32:43;1.67;;;0.83;;
12715;SDS011;6422;49.938;9.124;2023-08-01T13:35:10;1.53;;;0.77;;
12715;SDS011;6422;49.938;9.124;2023-08-01T13:37:35;2.93;;;0.80;;
12715;SDS011;6422;49.938;9.124;2023-08-01T13:40:00;2.27;;;0.80;;
12715;SDS011;6422;49.938;9.124;2023-08-01T13:42:26;2.23;;;0.80;;
12715;SDS011;6422;49.938;9.124;2023-08-01T13:44:53;1.40;;;0.70;;
12715;SDS011;6422;49.938;9.124;2023-08-01T13:47:18;1.60;;;0.80;;
12715;SDS011;6422;49.938;9.124;2023-08-01T13:49:43;4.38;;;0.82;;
12715;SDS011;6422;49.938;9.124;2023-08-01T13:52:08;2.43;;;1.43;;
12715;SDS011;6422;49.938;9.124;2023-08-01T13:54:33;3.70;;;1.30;;
12715;SDS011;6422;49.938;9.124;2023-08-01T13:56:59;1.83;;;0.93;;
12715;SDS011;6422;49.938;9.124;2023-08-01T13:59:24;12.73;;;1.00;;
12715;SDS011;6422;49.938;9.124;2023-08-01T14:01:50;3.03;;;1.20;;
12715;SDS011;6422;49.938;9.124;2023-08-01T14:04:15;1.65;;;0.77;;
12715;SDS011;6422;49.938;9.124;2023-08-01T14:06:41;1.97;;;0.80;;
12715;SDS011;6422;49.938;9.124;2023-08-01T14:09:06;2.40;;;0.93;;
12715;SDS011;6422;49.938;9.124;2023-08-01T14:11:33;1.87;;;0.93;;
12715;SDS011;6422;49.938;9.124;2023-08-01T14:13:58;2.03;;;0.90;;
12715;SDS011;6422;49.938;9.124;2023-08-01T14:16:23;1.60;;;0.80;;
12715;SDS011;6422;49.938;9.124;2023-08-01T14:18:49;1.30;;;0.60;;
12715;SDS011;6422;49.938;9.124;2023-08-01T14:21:14;1.70;;;0.70;;
12715;SDS011;6422;49.938;9.124;2023-08-01T14:23:39;1.40;;;0.70;;
12715;SDS011;6422;49.938;9.124;2023-08-01T14:26:06;1.97;;;0.90;;
12715;SDS011;6422;49.938;9.124;2023-08-01T14:28:31;1.70;;;1.00;;
12715;SDS011;6422;49.938;9.124;2023-08-01T14:30:59;4.37;;;0.93;;
12715;SDS011;6422;49.938;9.124;2023-08-01T14:33:24;2.60;;;1.03;;
12715;SDS011;6422;49.938;9.124;2023-08-01T14:35:50;3.87;;;1.10;;
12715;SDS011;6422;49.938;9.124;2023-08-01T14:38:15;2.50;;;0.73;;
12715;SDS011;6422;49.938;9.124;2023-08-01T14:40:40;3.00;;;1.17;;
12715;SDS011;6422;49.938;9.124;2023-08-01T14:43:05;4.00;;;1.70;;
12715;SDS011;6422;49.938;9.124;2023-08-01T14:45:31;2.00;;;0.90;;
12715;SDS011;6422;49.938;9.124;2023-08-01T14:47:56;2.13;;;0.97;;
12715;SDS011;6422;49.938;9.124;2023-08-01T14:50:21;12.20;;;2.00;;